Time;durP1;ratioP1;P1;durP2;ratioP2;P2;SDS_P1;SDS_P2;PMS_P1;PMS_P2;Temp;Humidity;BMP_temperature;BMP_pressure;BME280_temperature;BME280_humidity;BME280_pressure;Samples;Min_cycle;Max_cycle;Signal;HPM_P1;HPM_P2
2022/03/09 00:01:42;;;;;;;15.38;8.32;;;1.60;55.70;;;0.05;40.41;95511.50;5038108;28;20257;-83
2022/03/09 00:04:10;;;;;;;14.52;8.48;;;1.50;55.80;;;0.04;40.57;95511.59;5020145;28;20693;-83
2022/03/09 00:06:38;;;;;;;12.55;7.88;;;1.40;55.90;;;0.02;40.45;95505.75;5050056;28;20200;-83
2022/03/09 00:09:05;;;;;;;14.52;8.68;;;1.40;56.00;;;0.07;41.00;95516.53;5037221;28;20231;-83
2022/03/09 00:11:32;;;;;;;14.65;9.13;;;1.40;56.10;;;0.11;41.01;95515.38;5021000;28;20257;-83
2022/03/09 00:13:59;;;;;;;16.40;9.90;;;1.40;56.40;;;0.16;41.22;95515.88;5052000;28;20682;-84
2022/03/09 00:16:26;;;;;;;15.38;8.45;;;1.40;56.50;;;0.21;41.62;95516.34;5024667;28;20304;-83
2022/03/09 00:18:54;;;;;;;16.00;9.75;;;1.40;56.80;;;0.26;42.06;95509.09;5017687;28;20263;-83
2022/03/09 00:21:21;;;;;;;15.93;9.32;;;1.40;57.10;;;0.36;41.61;95516.16;5017576;28;20220;-83
2022/03/09 00:23:48;;;;;;;14.93;9.50;;;1.50;57.20;;;0.43;41.55;95518.16;4998681;28;20240;-83
2022/03/09 00:26:16;;;;;;;16.65;9.27;;;1.50;57.10;;;0.44;41.49;95518.97;5041104;28;20289;-83
2022/03/09 00:28:43;;;;;;;17.15;9.25;;;1.60;57.10;;;0.49;41.21;95527.22;5033738;28;20216;-83
2022/03/09 00:31:11;;;;;;;16.92;8.85;;;1.60;57.00;;;0.46;40.99;95528.28;5018022;28;20663;-83
2022/03/09 00:33:39;;;;;;;11.90;7.93;;;1.60;56.90;;;0.42;40.93;95531.19;5037090;28;20321;-82
2022/03/09 00:36:06;;;;;;;13.60;7.88;;;1.60;56.80;;;0.31;40.99;95530.22;5017193;28;20221;-83
2022/03/09 00:38:34;;;;;;;11.82;7.57;;;1.60;56.70;;;0.24;41.04;95529.00;5016943;28;20224;-83
2022/03/09 00:41:02;;;;;;;14.05;7.97;;;1.60;56.70;;;0.15;40.79;95532.28;5016658;28;20230;-84
2022/03/09 00:43:30;;;;;;;16.45;8.40;;;1.50;56.60;;;0.04;40.98;95533.06;5010275;28;20212;-83
2022/03/09 00:45:57;;;;;;;13.15;8.57;;;1.50;56.50;;;-0.03;41.29;95527.50;5051017;28;20255;-83
2022/03/09 00:48:24;;;;;;;15.88;8.15;;;1.40;56.40;;;-0.10;41.20;95526.31;5000846;28;20213;-83
2022/03/09 00:50:52;;;;;;;15.40;7.80;;;1.40;56.70;;;-0.12;41.31;95540.25;5024593;28;20294;-82
2022/03/09 00:53:19;;;;;;;12.77;7.65;;;1.30;56.60;;;-0.18;41.38;95532.03;5036894;28;20265;-83
2022/03/09 00:55:47;;;;;;;13.05;7.60;;;1.20;56.60;;;-0.22;41.20;95535.75;5036883;28;20204;-83
2022/03/09 00:58:14;;;;;;;11.80;7.38;;;1.20;56.70;;;-0.28;41.19;95527.63;5019789;28;20609;-83
2022/03/09 01:00:41;;;;;;;11.82;7.05;;;1.20;56.80;;;-0.37;41.20;95529.94;5034716;28;20234;-83
2022/03/09 01:03:08;;;;;;;15.23;8.05;;;1.10;56.70;;;-0.43;41.13;95522.63;5034665;28;20234;-82
2022/03/09 01:05:36;;;;;;;15.30;8.13;;;1.10;56.60;;;-0.46;41.42;95537.50;5030729;28;20212;-83
2022/03/09 01:08:04;;;;;;;14.55;8.65;;;1.00;56.60;;;-0.50;41.77;95536.88;5049716;28;20193;-83
2022/03/09 01:10:31;;;;;;;15.00;8.82;;;0.90;56.80;;;-0.52;41.62;95538.75;5032883;28;20296;-83
2022/03/09 01:13:00;;;;;;;15.70;8.27;;;0.90;57.00;;;-0.50;42.07;95544.63;5049238;28;20209;-83
2022/03/09 01:15:28;;;;;;;12.85;8.15;;;0.90;57.20;;;-0.52;41.70;95531.03;5016256;28;20189;-83
2022/03/09 01:17:55;;;;;;;14.65;7.40;;;0.80;57.30;;;-0.59;41.75;95529.81;5033202;28;20243;-82
2022/03/09 01:20:22;;;;;;;12.77;6.72;;;0.80;57.20;;;-0.60;41.66;95534.13;5033211;28;20211;-82
2022/03/09 01:22:49;;;;;;;15.32;7.60;;;0.80;57.20;;;-0.71;41.56;95529.75;5016486;28;20237;-83
2022/03/09 01:25:16;;;;;;;9.57;6.53;;;0.80;57.20;;;-0.75;41.68;95530.88;5028914;28;20706;-83
2022/03/09 01:27:47;;;;;;;13.50;7.22;;;0.70;57.20;;;-0.86;41.48;95516.16;5042030;28;20682;-83
2022/03/09 01:30:14;;;;;;;13.18;7.63;;;0.70;57.20;;;-1.02;41.60;95506.09;5036728;28;20266;-83
2022/03/09 01:32:41;;;;;;;12.02;7.25;;;0.60;57.10;;;-0.92;41.72;95528.66;5064384;28;20224;-83
2022/03/09 01:35:09;;;;;;;11.30;7.10;;;0.60;57.10;;;-1.01;41.62;95528.34;5032531;28;20221;-83
2022/03/09 01:37:36;;;;;;;12.25;7.88;;;0.50;57.20;;;-1.01;41.82;95528.34;5019121;28;20208;-83
2022/03/09 01:40:04;;;;;;;14.27;8.32;;;0.50;57.30;;;-1.04;41.93;95531.16;5035846;28;20224;-83
2022/03/09 01:42:31;;;;;;;13.35;8.02;;;0.40;57.40;;;-1.05;41.72;95533.81;5052543;28;20206;-83
2022/03/09 01:45:07;;;;;;;14.68;7.75;;;0.40;57.40;;;-1.13;41.71;95524.88;5035664;28;20224;-83
2022/03/09 01:47:35;;;;;;;11.60;7.32;;;0.40;57.70;;;-1.14;42.13;95528.34;5038864;28;20238;-83
2022/03/09 01:50:05;;;;;;;13.93;8.10;;;0.40;57.50;;;-1.14;42.01;95527.56;5031272;28;20224;-83
2022/03/09 01:52:33;;;;;;;13.32;7.78;;;0.30;57.50;;;-1.14;42.33;95525.78;5016121;28;20200;-83
2022/03/09 01:55:02;;;;;;;12.13;8.10;;;0.30;57.60;;;-1.11;42.50;95523.94;5020223;28;20212;-83
2022/03/09 01:57:30;;;;;;;13.48;8.90;;;0.30;58.90;;;-1.10;42.51;95521.25;5035466;28;20222;-83
2022/03/09 01:59:59;;;;;;;16.17;9.02;;;0.30;58.00;;;-1.06;42.37;95522.72;5035627;28;20226;-83
2022/03/09 02:02:26;;;;;;;16.25;9.15;;;0.30;58.00;;;-1.03;42.66;95521.66;5035845;28;20638;-83
2022/03/09 02:04:57;;;;;;;14.25;8.65;;;0.30;58.00;;;-1.01;42.53;95518.06;5035268;28;20294;-83
2022/03/09 02:10:11;;;;;;;14.98;8.68;;;0.30;58.10;;;-0.97;42.74;95521.25;5037654;28;20258;-82
2022/03/09 02:12:38;;;;;;;14.02;7.80;;;0.30;58.10;;;-1.00;42.43;95508.56;5035273;28;20200;-82
2022/03/09 02:15:07;;;;;;;13.00;7.93;;;0.30;58.10;;;-0.95;42.71;95513.41;5041641;28;20215;-83
2022/03/09 02:17:34;;;;;;;14.15;8.32;;;0.30;58.20;;;-0.97;42.81;95509.19;5016674;28;20650;-83
2022/03/09 02:20:03;;;;;;;13.48;8.02;;;0.40;58.40;;;-0.91;42.76;95517.44;4999089;28;20247;-82
2022/03/09 02:22:37;;;;;;;13.13;7.93;;;0.30;58.30;;;-0.92;42.85;95508.06;5031997;28;20607;-83
2022/03/09 02:25:15;;;;;;;13.25;7.78;;;0.40;58.60;;;-0.89;42.68;95511.25;5015107;28;20224;-82
2022/03/09 02:27:44;;;;;;;12.05;8.23;;;0.40;58.80;;;-0.87;42.58;95506.78;5016405;28;20200;-82
2022/03/09 02:30:18;;;;;;;15.02;8.63;;;0.40;58.30;;;-0.86;42.69;95502.47;5031305;28;20219;-83
2022/03/09 02:32:48;;;;;;;12.63;7.93;;;0.40;58.60;;;-0.79;43.17;95506.28;5028062;28;20211;-83
2022/03/09 02:35:18;;;;;;;15.73;8.88;;;0.40;58.40;;;-0.78;42.99;95509.66;5019321;28;20754;-82
2022/03/09 02:37:46;;;;;;;14.40;8.20;;;0.40;58.40;;;-0.74;42.39;95505.97;5020536;28;20205;-83
2022/03/09 02:40:16;;;;;;;16.55;9.38;;;0.50;58.40;;;-0.71;42.95;95498.00;5015326;28;20192;-82
2022/03/09 02:42:43;;;;;;;14.38;8.88;;;0.50;59.00;;;-0.88;42.90;95470.84;5031408;28;20212;-82
2022/03/09 02:45:11;;;;;;;16.52;8.48;;;0.50;58.50;;;-0.67;42.73;95499.44;5014199;28;20248;-83
2022/03/09 02:47:41;;;;;;;14.80;8.55;;;0.50;58.40;;;-0.68;42.85;95496.03;5047360;28;20212;-82
2022/03/09 02:50:12;;;;;;;15.00;9.45;;;0.60;58.60;;;-0.68;43.02;95506.34;4999532;28;20248;-82
2022/03/09 02:52:41;;;;;;;13.75;8.50;;;0.60;58.60;;;-0.67;42.97;95510.56;4999156;28;20289;-83
2022/03/09 02:55:10;;;;;;;14.50;8.63;;;0.60;58.60;;;-0.67;42.87;95505.41;5017596;28;20227;-83
2022/03/09 02:57:39;;;;;;;13.50;8.23;;;0.60;58.60;;;-0.68;42.85;95506.34;5033900;28;20192;-83
2022/03/09 03:00:11;;;;;;;12.07;7.80;;;0.60;58.50;;;-0.68;42.68;95497.81;5019649;28;20277;-83
2022/03/09 03:02:39;;;;;;;12.45;7.85;;;0.60;58.60;;;-0.72;42.91;95494.63;5016641;28;20211;-83
2022/03/09 03:05:08;;;;;;;15.40;8.30;;;0.60;58.50;;;-0.71;42.69;95506.56;5032143;28;20221;-82
2022/03/09 03:07:36;;;;;;;13.68;8.07;;;0.60;58.60;;;-0.77;42.71;95501.00;5015603;28;20215;-83
2022/03/09 03:10:05;;;;;;;14.70;8.23;;;0.60;58.40;;;-0.84;42.93;95496.28;5032714;28;20287;-83
2022/03/09 03:12:33;;;;;;;12.63;7.75;;;0.60;58.50;;;-0.81;42.57;95492.69;5031911;28;20255;-83
2022/03/09 03:15:01;;;;;;;11.93;7.18;;;0.50;58.40;;;-0.88;42.41;95500.03;5032519;28;20255;-83
2022/03/09 03:17:28;;;;;;;12.13;6.78;;;0.50;58.40;;;-0.88;42.75;95502.59;5042431;28;20200;-83
2022/03/09 03:19:55;;;;;;;11.07;7.30;;;0.50;58.40;;;-0.95;42.57;95511.69;5038820;28;20275;-82
2022/03/09 03:22:23;;;;;;;15.02;7.10;;;0.50;58.30;;;-1.03;42.54;95507.03;5038732;28;20224;-83
2022/03/09 03:24:50;;;;;;;12.15;7.07;;;0.50;58.30;;;-1.10;42.69;95515.28;5038395;28;20283;-82
2022/03/09 03:27:17;;;;;;;10.95;6.97;;;0.40;58.20;;;-1.19;42.64;95511.59;5018639;28;20252;-83
2022/03/09 03:29:44;;;;;;;13.82;7.60;;;0.40;58.30;;;-1.29;42.49;95506.25;5056290;28;20298;-82
2022/03/09 03:32:11;;;;;;;14.57;7.88;;;0.30;58.30;;;-1.35;42.79;95511.81;5038354;28;20253;-83
2022/03/09 03:34:39;;;;;;;16.05;8.80;;;0.20;58.30;;;-1.37;43.04;95505.94;5038417;28;20235;-83
2022/03/09 03:37:06;;;;;;;16.08;9.35;;;0.20;58.50;;;-1.38;43.56;95509.44;5025117;28;20227;-83
2022/03/09 03:39:34;;;;;;;14.48;9.23;;;0.10;58.70;;;-1.37;43.39;95508.53;5018433;28;20657;-82
2022/03/09 03:42:01;;;;;;;13.77;8.23;;;0.10;58.90;;;-1.31;43.47;95515.81;5051249;28;20311;-83
2022/03/09 03:44:29;;;;;;;16.75;9.35;;;0.10;59.10;;;-1.28;44.16;95510.47;5035562;28;20265;-83
2022/03/09 03:46:56;;;;;;;15.70;9.70;;;0.10;59.50;;;-1.27;44.37;95511.28;5053887;28;20590;-83
2022/03/09 03:49:23;;;;;;;16.85;10.35;;;0.10;59.50;;;-1.20;44.75;95517.69;5038227;28;20277;-83
2022/03/09 03:51:50;;;;;;;15.73;9.43;;;0.10;59.70;;;-1.17;44.84;95515.72;5054503;28;20279;-83
2022/03/09 03:54:17;;;;;;;19.25;10.27;;;0.10;60.00;;;-1.12;44.95;95515.41;5019905;28;20624;-82
2022/03/09 03:56:46;;;;;;;17.45;10.05;;;0.10;60.00;;;-1.11;44.29;95516.22;5031929;28;20232;-83
2022/03/09 03:59:14;;;;;;;15.65;9.30;;;0.10;59.90;;;-1.05;44.35;95521.78;5050782;28;20277;-83
2022/03/09 04:01:42;;;;;;;16.48;9.00;;;0.20;59.70;;;-1.04;44.16;95514.88;5038035;28;20204;-83
2022/03/09 04:04:09;;;;;;;18.80;9.38;;;0.20;59.60;;;-1.05;43.94;95514.06;5017288;28;20702;-83
2022/03/09 04:06:37;;;;;;;16.00;9.15;;;0.20;59.50;;;-1.00;44.11;95514.56;5014317;28;20225;-83
2022/03/09 04:09:04;;;;;;;16.77;9.18;;;0.20;59.50;;;-1.06;43.75;95496.13;5030808;28;20225;-83
2022/03/09 04:11:31;;;;;;;13.88;8.18;;;0.20;59.50;;;-1.00;43.64;95513.72;5029927;28;20228;-83
2022/03/09 04:13:58;;;;;;;15.43;8.68;;;0.20;59.50;;;-1.08;43.53;95509.09;5038687;28;20219;-82
2022/03/09 04:16:25;;;;;;;13.73;8.27;;;0.20;59.50;;;-1.10;43.75;95518.69;5034534;28;20257;-82
2022/03/09 04:18:55;;;;;;;19.38;9.35;;;0.20;59.30;;;-1.09;43.72;95520.31;5038208;28;20227;-83
2022/03/09 04:21:23;;;;;;;13.80;8.77;;;0.20;59.50;;;-1.10;43.80;95516.09;5037320;28;20638;-83
2022/03/09 04:23:50;;;;;;;14.00;8.00;;;0.20;59.50;;;-1.15;43.46;95516.44;5029277;28;20653;-82
2022/03/09 04:26:17;;;;;;;11.27;7.57;;;0.20;59.60;;;-1.20;43.36;95517.69;5037473;28;20243;-83
2022/03/09 04:28:44;;;;;;;13.40;7.95;;;0.20;59.50;;;-1.27;43.52;95519.00;5037173;28;20277;-83
2022/03/09 04:31:12;;;;;;;12.70;7.68;;;0.10;59.20;;;-1.42;43.46;95502.88;5045088;28;20189;-83
2022/03/09 04:33:39;;;;;;;14.88;7.68;;;0.10;59.20;;;-1.45;43.44;95512.44;5049592;28;20227;-82
2022/03/09 04:36:09;;;;;;;14.95;8.18;;;0.00;59.10;;;-1.51;43.92;95506.88;5034908;28;20276;-83
2022/03/09 04:38:36;;;;;;;14.70;8.63;;;0.00;59.20;;;-1.52;44.18;95507.81;5083546;28;20635;-83
2022/03/09 04:41:03;;;;;;;19.75;10.82;;;0.00;59.40;;;-1.52;45.09;95503.47;5050287;28;20272;-82
2022/03/09 04:43:31;;;;;;;20.02;10.65;;;0.00;60.00;;;-1.43;45.11;95509.75;5052245;28;20228;-83
2022/03/09 04:45:58;;;;;;;18.48;11.38;;;-0.10;60.00;;;-1.35;46.02;95510.06;5034665;28;20266;-83
2022/03/09 04:48:26;;;;;;;23.75;11.18;;;-0.10;60.50;;;-1.26;46.11;95508.59;5027118;28;20287;-83
2022/03/09 04:50:53;;;;;;;20.40;11.50;;;0.00;60.70;;;-1.20;46.44;95503.03;5033303;28;20726;-81
2022/03/09 04:53:21;;;;;;;21.77;12.70;;;0.00;60.90;;;-1.14;46.47;95506.97;5049447;28;20365;-82
2022/03/09 04:55:48;;;;;;;21.70;12.02;;;0.00;61.10;;;-1.18;46.46;95484.94;5038886;28;20290;-82
2022/03/09 04:58:16;;;;;;;22.35;11.95;;;0.10;61.20;;;-0.98;46.50;95515.28;5016816;28;20208;-83
2022/03/09 05:00:43;;;;;;;23.45;11.98;;;0.10;61.20;;;-0.94;46.67;95510.75;5019209;28;20205;-83
2022/03/09 05:03:10;;;;;;;21.38;12.48;;;0.20;61.30;;;-0.91;47.11;95512.28;5053205;28;20216;-82
2022/03/09 05:05:39;;;;;;;25.85;13.50;;;0.20;61.40;;;-0.87;47.23;95511.94;5053180;28;20273;-83
2022/03/09 05:08:06;;;;;;;22.20;12.40;;;0.30;62.50;;;-0.86;47.01;95505.06;5032441;28;20192;-83
2022/03/09 05:10:33;;;;;;;22.67;12.98;;;0.30;61.40;;;-0.86;47.41;95499.91;5035480;28;20294;-83
2022/03/09 05:13:00;;;;;;;25.88;12.68;;;0.40;61.70;;;-0.78;47.59;95510.50;5016657;28;20197;-83
2022/03/09 05:15:27;;;;;;;22.33;12.68;;;0.40;61.90;;;-0.74;47.64;95506.78;5015867;28;20235;-83
2022/03/09 05:17:55;;;;;;;22.95;13.13;;;0.40;61.90;;;-0.69;47.37;95512.41;5016428;28;20246;-83
2022/03/09 05:20:23;;;;;;;23.70;12.82;;;0.40;61.80;;;-0.65;47.23;95515.59;5014989;28;20204;-82
2022/03/09 05:22:51;;;;;;;24.23;13.02;;;0.50;61.90;;;-0.63;47.28;95516.31;5032729;28;20199;-83
2022/03/09 05:25:19;;;;;;;23.05;12.77;;;0.50;61.90;;;-0.61;46.99;95519.63;5048372;28;20307;-83
2022/03/09 05:27:46;;;;;;;21.30;12.20;;;0.50;61.80;;;-0.59;47.43;95527.25;4999557;28;20201;-82
2022/03/09 05:30:13;;;;;;;23.58;13.10;;;0.60;61.70;;;-0.58;47.42;95523.75;5016124;28;20239;-83
2022/03/09 05:32:42;;;;;;;24.08;13.18;;;0.60;61.80;;;-0.57;47.19;95517.66;5032605;28;20532;-82
2022/03/09 05:35:09;;;;;;;19.08;12.27;;;0.60;61.60;;;-0.57;47.12;95528.78;5024356;28;20219;-82
2022/03/09 05:37:43;;;;;;;21.58;12.23;;;0.60;61.70;;;-0.55;47.10;95526.09;5031977;28;20643;-83
2022/03/09 05:40:11;;;;;;;22.17;12.80;;;0.60;61.70;;;-0.58;47.60;95531.47;5033784;28;20300;-82
2022/03/09 05:42:43;;;;;;;21.20;12.63;;;0.70;61.90;;;-0.57;47.68;95522.81;5033771;28;20302;-83
2022/03/09 05:45:12;;;;;;;23.25;13.68;;;0.60;61.90;;;-0.56;47.89;95533.00;5029468;28;20212;-83
2022/03/09 05:47:51;;;;;;;26.20;13.73;;;0.70;62.00;;;-0.49;47.72;95525.66;5033095;28;20219;-82
2022/03/09 05:50:18;;;;;;;19.42;11.52;;;0.70;61.90;;;-0.47;47.18;95522.97;5019569;28;20227;-82
2022/03/09 05:52:46;;;;;;;24.85;12.95;;;0.70;61.90;;;-0.40;47.23;95529.34;5052169;28;20650;-83
2022/03/09 05:55:13;;;;;;;21.33;13.45;;;0.70;61.80;;;-0.37;46.99;95524.78;5012321;28;20197;-83
2022/03/09 05:57:41;;;;;;;27.20;13.85;;;0.70;61.80;;;-0.33;47.15;95531.38;5041216;28;20632;-82
2022/03/09 06:00:09;;;;;;;25.40;13.30;;;0.80;61.90;;;-0.27;47.05;95526.72;5015669;28;20227;-82
2022/03/09 06:02:39;;;;;;;21.70;12.73;;;0.80;61.90;;;-0.21;47.31;95534.00;5048491;28;20658;-82
2022/03/09 06:05:09;;;;;;;25.25;13.90;;;0.80;61.90;;;-0.17;47.44;95530.28;5022866;28;20220;-83
2022/03/09 06:07:36;;;;;;;25.65;13.20;;;0.90;62.30;;;-0.07;47.70;95538.19;5052083;28;20220;-84
2022/03/09 06:10:04;;;;;;;27.58;14.48;;;0.90;62.20;;;-0.05;47.49;95533.72;5035612;28;20243;-83
2022/03/09 06:12:31;;;;;;;27.65;13.82;;;1.00;62.30;;;0.07;47.63;95547.47;5034521;28;20250;-83
2022/03/09 06:14:58;;;;;;;23.70;13.93;;;1.00;62.30;;;0.14;47.52;95546.09;5051277;28;20266;-83
2022/03/09 06:17:31;;;;;;;20.70;13.07;;;1.10;62.40;;;0.20;47.28;95550.81;5034287;28;20232;-83
2022/03/09 06:20:00;;;;;;;23.83;13.00;;;1.10;62.30;;;0.26;47.05;95552.94;5019586;28;20422;-83
2022/03/09 06:22:27;;;;;;;23.30;13.70;;;1.20;62.10;;;0.34;46.94;95567.03;5016078;28;20303;-82
2022/03/09 06:24:54;;;;;;;33.38;14.02;;;1.20;62.10;;;0.34;46.86;95554.97;5012070;28;20304;-83
2022/03/09 06:27:21;;;;;;;22.90;13.35;;;1.30;62.10;;;0.44;46.72;95563.69;5024428;28;20228;-84
2022/03/09 06:29:48;;;;;;;24.90;13.50;;;1.40;62.10;;;0.52;46.85;95567.47;5029482;28;20245;-83
2022/03/09 06:32:15;;;;;;;22.75;12.57;;;1.40;62.10;;;0.58;47.07;95567.00;5036928;28;20235;-84
2022/03/09 06:34:42;;;;;;;22.45;13.38;;;1.50;62.10;;;0.64;46.95;95571.69;5015061;28;20220;-83
2022/03/09 06:37:09;;;;;;;21.10;12.38;;;1.50;62.10;;;0.74;46.72;95569.25;5015804;28;20646;-84
2022/03/09 06:39:36;;;;;;;22.83;12.77;;;1.60;62.10;;;0.83;46.72;95562.56;5015093;28;20307;-83
2022/03/09 06:42:04;;;;;;;21.83;12.65;;;1.60;62.10;;;0.93;46.62;95558.38;4998607;28;20242;-83
2022/03/09 06:44:31;;;;;;;24.90;12.93;;;1.70;62.20;;;1.05;46.22;95572.94;5015607;28;20213;-83
2022/03/09 06:46:58;;;;;;;24.02;13.05;;;1.80;62.10;;;1.16;46.30;95574.72;5031337;28;20316;-84
2022/03/09 06:49:27;;;;;;;22.73;13.50;;;1.80;62.10;;;1.26;46.40;95575.63;5015444;28;20221;-84
2022/03/09 06:51:55;;;;;;;22.23;13.27;;;2.00;63.10;;;1.25;45.95;95557.66;5046627;28;20210;-85
2022/03/09 06:54:23;;;;;;;20.90;13.05;;;2.00;62.10;;;1.46;45.90;95580.22;5034838;28;20235;-83
2022/03/09 06:56:53;;;;;;;25.13;13.02;;;2.20;62.00;;;1.54;45.91;95586.44;5031152;28;20595;-84
2022/03/09 06:59:20;;;;;;;22.83;12.85;;;2.20;61.90;;;1.58;45.83;95587.00;5014468;28;20308;-84
2022/03/09 07:01:47;;;;;;;22.42;13.07;;;2.30;61.80;;;1.60;45.38;95579.97;5047935;28;20204;-85
2022/03/09 07:04:15;;;;;;;22.80;12.68;;;2.40;61.70;;;1.64;45.60;95573.59;5051211;28;20220;-84
2022/03/09 07:06:43;;;;;;;24.63;13.43;;;2.40;61.60;;;1.51;45.56;95544.47;5033726;28;20224;-84
2022/03/09 07:09:11;;;;;;;22.17;13.48;;;2.50;61.60;;;1.72;45.66;95570.41;5030923;28;20314;-84
2022/03/09 07:11:39;;;;;;;24.77;13.68;;;2.50;61.50;;;1.74;45.59;95563.38;5050595;28;20200;-84
2022/03/09 07:14:05;;;;;;;22.88;13.38;;;2.60;61.60;;;1.79;45.62;95574.16;5034247;28;20711;-84
2022/03/09 07:16:33;;;;;;;24.85;13.45;;;2.60;61.50;;;1.83;45.51;95575.56;5029973;28;20208;-84
2022/03/09 07:19:00;;;;;;;20.73;12.60;;;2.60;61.40;;;1.85;45.37;95568.50;5051639;28;20216;-84
2022/03/09 07:21:28;;;;;;;22.70;13.00;;;2.70;61.40;;;1.94;45.49;95581.66;5051318;28;20200;-84
2022/03/09 07:23:55;;;;;;;26.48;14.15;;;2.70;61.40;;;2.00;45.19;95571.66;5035038;28;20243;-85
2022/03/09 07:26:22;;;;;;;22.98;13.63;;;2.80;61.50;;;2.00;45.24;95569.06;5023335;28;20785;-85
2022/03/09 07:28:51;;;;;;;23.42;14.38;;;2.80;61.50;;;2.13;45.20;95579.25;5016806;28;20249;-85
2022/03/09 07:31:18;;;;;;;22.63;13.68;;;2.90;61.60;;;2.18;44.81;95574.50;5011676;28;20255;-85
2022/03/09 07:33:45;;;;;;;22.30;13.30;;;2.90;61.50;;;2.26;45.08;95576.50;4995687;28;20264;-85
2022/03/09 07:36:12;;;;;;;24.35;14.38;;;3.00;61.70;;;2.38;44.95;95585.84;5031602;28;20192;-85
2022/03/09 07:38:43;;;;;;;26.20;13.60;;;3.10;61.70;;;2.36;44.98;95572.19;5018855;28;20251;-85
2022/03/09 07:41:30;;;;;;;20.40;12.52;;;3.10;61.60;;;2.55;44.68;95576.72;5035118;28;20192;-85
2022/03/09 07:44:00;;;;;;;19.35;11.52;;;3.20;61.60;;;2.82;44.85;95596.13;5030098;28;20235;-86
2022/03/09 07:46:28;;;;;;;20.95;12.40;;;3.30;61.70;;;3.04;44.57;95596.94;5024109;28;20239;-85
2022/03/09 07:48:55;;;;;;;19.23;12.38;;;3.40;61.70;;;3.25;44.51;95585.69;5034416;28;20228;-85
2022/03/09 07:51:22;;;;;;;18.35;11.02;;;3.50;62.80;;;3.39;44.36;95574.97;5000945;28;20200;-86
2022/03/09 07:53:49;;;;;;;18.83;11.32;;;3.70;62.00;;;3.78;44.20;95597.63;5018797;28;20224;-86
2022/03/09 07:56:16;;;;;;;20.15;11.57;;;3.80;61.90;;;3.99;44.02;95594.94;5050531;28;20266;-85
2022/03/09 07:58:43;;;;;;;20.45;11.35;;;4.00;61.90;;;4.21;44.31;95596.47;5018522;28;20742;-84
2022/03/09 08:01:10;;;;;;;16.40;11.00;;;4.20;61.90;;;4.35;43.68;95577.06;5018390;28;20215;-84
2022/03/09 08:03:39;;;;;;;19.58;10.63;;;4.40;61.90;;;4.73;43.70;95610.97;5018347;28;20227;-85
2022/03/09 08:06:10;;;;;;;17.00;11.07;;;4.60;61.90;;;4.91;43.45;95605.91;5018062;28;20193;-85
2022/03/09 08:08:37;;;;;;;20.98;11.25;;;4.80;61.70;;;5.00;43.33;95592.03;5018019;28;20306;-85
2022/03/09 08:11:07;;;;;;;18.83;11.93;;;5.10;61.60;;;5.13;42.58;95591.75;5017637;28;20201;-86
2022/03/09 08:13:34;;;;;;;18.65;11.68;;;5.20;61.20;;;5.36;42.56;95610.44;5018204;28;20255;-86
2022/03/09 08:16:08;;;;;;;18.60;11.23;;;5.40;61.20;;;5.45;42.60;95606.16;5034639;28;20200;-86
2022/03/09 08:18:38;;;;;;;20.45;12.00;;;5.60;61.00;;;5.55;42.71;95606.91;5017960;28;20678;-86
2022/03/09 08:21:05;;;;;;;18.13;11.00;;;5.70;60.80;;;5.64;42.62;95607.88;5018009;28;20232;-86
2022/03/09 08:23:33;;;;;;;16.40;11.10;;;5.80;60.80;;;5.72;42.34;95607.94;5018088;28;20212;-85
2022/03/09 08:26:00;;;;;;;17.55;11.05;;;5.90;60.70;;;5.85;42.54;95610.22;5017905;28;20196;-84
2022/03/09 08:28:28;;;;;;;15.13;10.60;;;6.00;60.70;;;5.99;42.60;95606.31;5018021;28;20228;-85
2022/03/09 08:30:56;;;;;;;15.48;10.05;;;6.10;60.60;;;6.16;42.37;95604.72;5033424;28;20208;-85
2022/03/09 08:33:24;;;;;;;14.98;9.55;;;6.30;60.70;;;6.31;42.26;95612.88;5034142;28;20236;-84
2022/03/09 08:35:53;;;;;;;13.90;9.43;;;6.40;60.70;;;6.45;42.37;95611.53;5017846;28;20286;-84
2022/03/09 08:38:21;;;;;;;15.52;9.98;;;6.50;60.70;;;6.54;42.15;95610.63;5050514;28;20221;-85
2022/03/09 08:40:48;;;;;;;13.95;9.82;;;6.60;60.50;;;6.69;41.87;95610.94;5017729;28;20201;-85
2022/03/09 08:43:18;;;;;;;16.67;10.45;;;6.80;60.70;;;6.79;42.13;95605.63;5033942;28;20217;-85
2022/03/09 08:45:45;;;;;;;16.15;9.80;;;6.90;60.50;;;6.94;41.61;95602.47;5017387;28;20204;-84
2022/03/09 08:48:12;;;;;;;16.27;9.85;;;7.00;60.50;;;7.10;41.77;95609.59;5018271;28;20286;-85
2022/03/09 08:50:39;;;;;;;14.43;9.43;;;7.10;60.50;;;7.21;41.84;95610.19;5037260;28;20212;-84
2022/03/09 08:53:08;;;;;;;15.43;9.82;;;7.20;61.40;;;7.34;41.50;95601.13;5042148;28;20724;-84
2022/03/09 08:55:36;;;;;;;14.35;10.20;;;7.40;60.30;;;7.42;41.49;95597.72;5016311;28;20196;-84
2022/03/09 08:58:03;;;;;;;15.52;9.98;;;7.50;60.20;;;7.52;41.36;95598.44;5013246;28;20256;-85
2022/03/09 09:00:30;;;;;;;14.38;9.77;;;7.60;61.30;;;7.63;41.29;95600.78;5044330;28;20250;-84
2022/03/09 09:02:58;;;;;;;12.85;8.82;;;7.70;60.20;;;7.73;41.48;95595.44;5046960;28;21295;-83
2022/03/09 09:05:27;;;;;;;11.85;8.70;;;7.80;60.20;;;7.84;41.33;95602.97;5013331;28;20215;-85
2022/03/09 09:07:54;;;;;;;15.73;8.88;;;7.90;60.20;;;7.99;41.28;95595.34;5032595;28;20267;-84
2022/03/09 09:10:31;;;;;;;14.43;8.77;;;8.00;60.20;;;8.12;41.29;95594.91;5025363;28;20611;-84
2022/03/09 09:12:58;;;;;;;13.23;8.45;;;8.10;60.20;;;8.15;41.28;95575.47;5036186;28;20227;-84
2022/03/09 09:15:28;;;;;;;12.02;8.50;;;8.30;60.30;;;8.45;41.05;95591.53;5032846;28;20212;-84
2022/03/09 09:18:04;;;;;;;10.63;7.95;;;8.40;60.30;;;8.65;40.96;95592.06;5003628;28;20188;-84
2022/03/09 09:20:50;;;;;;;10.77;7.72;;;8.50;60.10;;;8.83;41.06;95589.28;5027287;28;20244;-84
2022/03/09 09:23:18;;;;;;;13.55;8.25;;;8.60;60.30;;;8.99;40.91;95591.09;5013206;28;20299;-84
2022/03/09 09:25:46;;;;;;;10.88;8.07;;;8.80;60.40;;;9.11;40.95;95583.72;5048340;28;20208;-84
2022/03/09 09:28:15;;;;;;;13.15;7.78;;;8.90;60.30;;;9.27;40.74;95575.81;5049732;28;20335;-84
2022/03/09 09:30:46;;;;;;;14.15;7.85;;;9.00;60.10;;;9.39;40.51;95573.66;5030492;28;20195;-84
2022/03/09 09:33:14;;;;;;;10.25;7.78;;;9.20;60.00;;;9.49;40.51;95573.47;5020169;28;20648;-84
2022/03/09 09:35:41;;;;;;;10.88;7.38;;;9.40;60.10;;;9.55;40.56;95567.56;5019312;28;20287;-84
2022/03/09 09:38:08;;;;;;;11.18;7.30;;;9.40;60.00;;;9.75;40.52;95581.09;5020689;28;20204;-84
2022/03/09 09:40:41;;;;;;;9.80;6.63;;;9.60;60.00;;;9.78;40.20;95567.63;5036411;28;20188;-84
2022/03/09 09:43:12;;;;;;;10.40;7.25;;;9.60;60.30;;;9.88;39.83;95575.28;5019675;28;20234;-85
2022/03/09 09:45:40;;;;;;;10.13;6.78;;;9.70;59.30;;;9.97;40.26;95570.03;5043924;28;20203;-84
2022/03/09 09:48:10;;;;;;;8.45;6.22;;;9.90;59.50;;;10.05;39.92;95570.78;5008689;28;20220;-86
2022/03/09 09:50:39;;;;;;;8.57;6.45;;;9.90;59.40;;;10.16;39.78;95579.28;5025329;28;20611;-85
2022/03/09 09:53:10;;;;;;;11.55;7.50;;;10.00;57.50;;;10.16;39.33;95569.59;5028518;28;20207;-85
2022/03/09 09:55:38;;;;;;;8.43;6.22;;;10.10;57.20;;;10.19;39.88;95565.78;5035813;28;20184;-86
2022/03/09 09:58:07;;;;;;;8.82;5.53;;;10.10;57.10;;;10.15;40.03;95560.09;5035829;28;20208;-85
2022/03/09 10:00:35;;;;;;;7.15;5.03;;;10.20;57.30;;;10.25;39.74;95562.47;5035686;28;20208;-85
2022/03/09 10:03:04;;;;;;;7.22;5.07;;;10.30;58.60;;;10.24;39.66;95547.75;5048693;28;20540;-85
2022/03/09 10:05:32;;;;;;;5.72;4.50;;;10.30;57.50;;;10.27;39.95;95539.53;5026488;28;20219;-85
2022/03/09 10:08:06;;;;;;;6.43;4.35;;;10.40;57.50;;;10.43;39.77;95561.44;5033765;28;20246;-85
2022/03/09 10:10:43;;;;;;;5.75;4.25;;;10.40;57.10;;;10.40;39.74;95552.13;5031453;28;20208;-85
2022/03/09 10:13:10;;;;;;;6.15;4.45;;;10.50;57.30;;;10.36;39.75;95548.16;5033335;28;20226;-85
2022/03/09 10:15:37;;;;;;;5.97;4.55;;;10.50;57.30;;;10.23;39.96;95533.03;5051433;28;20234;-85
2022/03/09 10:18:19;;;;;;;7.78;3.75;;;10.50;57.20;;;10.22;40.02;95552.34;5042774;28;20192;-84
2022/03/09 10:20:50;;;;;;;6.93;4.65;;;10.50;57.00;;;10.12;40.09;95546.50;5001725;28;20196;-84
2022/03/09 10:23:21;;;;;;;7.65;4.53;;;10.40;56.80;;;10.12;40.09;95557.00;5026804;28;20697;-84
2022/03/09 10:25:48;;;;;;;6.05;4.75;;;10.40;57.00;;;10.05;40.00;95543.78;5031308;28;20200;-84
2022/03/09 10:28:15;;;;;;;5.68;4.30;;;10.40;56.80;;;9.84;40.05;95518.16;4998058;28;20248;-85